createdAt,value
2017-09-25T00:02:16.416Z,16.33
2017-09-25T00:04:46.389Z,13.55
2017-09-25T00:07:15.923Z,12.93
2017-09-25T00:09:45.491Z,12.02
2017-09-25T00:12:15.048Z,12.30
2017-09-25T00:14:45.839Z,10.87
2017-09-25T00:17:15.443Z,13.30
2017-09-25T00:19:45.451Z,11.15
2017-09-25T00:22:15.846Z,11.30
2017-09-25T00:24:46.066Z,10.93
2017-09-25T00:27:15.850Z,10.47
2017-09-25T00:29:46.565Z,11.00
2017-09-25T00:32:16.455Z,9.45
2017-09-25T00:34:46.570Z,12.80
2017-09-25T00:37:17.338Z,9.30
2017-09-25T00:39:47.399Z,10.63
2017-09-25T00:42:18.092Z,10.50
2017-09-25T00:44:48.000Z,8.88
2017-09-25T00:47:17.823Z,9.80
2017-09-25T00:49:48.414Z,11.50
2017-09-25T00:52:21.443Z,9.52
2017-09-25T00:55:00.226Z,10.10
2017-09-25T00:57:30.415Z,11.30
2017-09-25T01:00:09.291Z,11.10
2017-09-25T01:02:39.482Z,9.88
2017-09-25T01:05:13.043Z,9.73
2017-09-25T01:07:43.112Z,10.10
2017-09-25T01:10:13.769Z,11.55
2017-09-25T01:12:43.764Z,12.98
2017-09-25T01:15:13.957Z,10.90
2017-09-25T01:17:43.830Z,9.90
2017-09-25T01:20:13.818Z,11.50
2017-09-25T01:22:43.499Z,12.70
2017-09-25T01:25:13.672Z,10.20
2017-09-25T01:27:43.879Z,10.27
2017-09-25T01:30:14.139Z,12.15
2017-09-25T01:32:44.099Z,13.23
2017-09-25T01:35:14.119Z,10.38
2017-09-25T01:37:44.350Z,10.30
2017-09-25T01:40:14.264Z,13.27
2017-09-25T01:42:44.101Z,12.30
2017-09-25T01:45:14.543Z,11.88
2017-09-25T01:47:44.415Z,9.40
2017-09-25T01:50:14.480Z,10.50
2017-09-25T01:52:44.879Z,14.55
2017-09-25T01:55:15.000Z,10.07
2017-09-25T01:57:45.187Z,9.30
2017-09-25T02:00:15.605Z,10.50
2017-09-25T02:02:45.712Z,8.90
2017-09-25T02:05:16.150Z,9.77
2017-09-25T02:07:47.605Z,9.90
2017-09-25T02:10:17.691Z,11.82
2017-09-25T02:12:47.750Z,10.55
2017-09-25T02:15:18.179Z,12.77
2017-09-25T02:17:49.100Z,11.05
2017-09-25T02:20:20.042Z,9.57
2017-09-25T02:22:50.039Z,11.00
2017-09-25T02:25:19.849Z,11.12
2017-09-25T02:27:50.193Z,11.82
2017-09-25T02:30:21.143Z,9.88
2017-09-25T02:32:52.075Z,12.40
2017-09-25T02:35:22.919Z,12.00
2017-09-25T02:37:52.887Z,12.70
2017-09-25T02:40:23.926Z,12.80
2017-09-25T02:42:53.928Z,9.77
2017-09-25T02:45:24.439Z,12.30
2017-09-25T02:47:55.036Z,11.95
2017-09-25T02:50:25.003Z,12.00
2017-09-25T02:52:55.061Z,10.43
2017-09-25T02:55:25.740Z,9.73
2017-09-25T02:57:55.683Z,10.63
2017-09-25T03:00:26.041Z,9.40
2017-09-25T03:02:56.539Z,12.75
2017-09-25T03:05:26.558Z,12.02
2017-09-25T03:07:57.457Z,10.55
2017-09-25T03:10:27.665Z,12.90
2017-09-25T03:12:57.723Z,13.85
2017-09-25T03:15:27.988Z,11.52
2017-09-25T03:17:57.843Z,11.27
2017-09-25T03:20:28.283Z,11.65
2017-09-25T03:22:58.248Z,12.20
2017-09-25T03:25:28.093Z,12.27
2017-09-25T03:27:58.768Z,11.00
2017-09-25T03:30:28.922Z,10.85
2017-09-25T03:32:59.824Z,12.63
2017-09-25T03:35:29.779Z,14.60
2017-09-25T03:38:00.583Z,11.10
2017-09-25T03:40:31.874Z,12.68
2017-09-25T03:43:02.436Z,10.02
2017-09-25T03:45:32.727Z,10.25
2017-09-25T03:48:03.603Z,12.25
2017-09-25T03:50:33.992Z,11.83
2017-09-25T03:53:05.548Z,19.87
2017-09-25T03:55:35.486Z,14.23
2017-09-25T03:58:05.416Z,16.95
2017-09-25T04:00:34.987Z,11.43
2017-09-25T04:03:04.558Z,13.32
2017-09-25T04:05:34.497Z,13.23
2017-09-25T04:08:04.869Z,11.65
2017-09-25T04:10:34.786Z,11.95
2017-09-25T04:13:05.139Z,9.63
2017-09-25T04:15:34.931Z,9.97
2017-09-25T04:18:04.889Z,12.88
2017-09-25T04:20:35.023Z,14.55
2017-09-25T04:23:04.591Z,13.32
2017-09-25T04:25:34.552Z,13.52
2017-09-25T04:28:04.614Z,11.77
2017-09-25T04:30:36.387Z,12.57
2017-09-25T04:33:06.280Z,12.45
2017-09-25T04:35:36.743Z,12.48
2017-09-25T04:38:07.832Z,11.98
2017-09-25T04:40:37.912Z,12.48
2017-09-25T04:43:08.219Z,11.50
2017-09-25T04:45:37.745Z,9.70
2017-09-25T04:48:07.438Z,10.55
2017-09-25T04:50:49.177Z,11.68
2017-09-25T04:53:19.027Z,11.70
2017-09-25T04:55:48.557Z,11.27
2017-09-25T04:58:18.077Z,9.33
2017-09-25T05:00:48.399Z,13.10
2017-09-25T05:03:18.062Z,10.63
2017-09-25T05:05:47.616Z,10.32
2017-09-25T05:08:17.122Z,11.07
2017-09-25T05:10:46.691Z,10.53
2017-09-25T05:13:17.050Z,9.68
2017-09-25T05:15:47.583Z,12.15
2017-09-25T05:18:17.467Z,12.50
2017-09-25T05:20:47.004Z,13.07
2017-09-25T05:23:17.375Z,11.77
2017-09-25T05:25:47.022Z,13.50
2017-09-25T05:28:17.575Z,10.55
2017-09-25T05:30:47.495Z,11.25
2017-09-25T05:33:17.575Z,11.40
2017-09-25T05:35:47.309Z,13.52
2017-09-25T05:38:18.103Z,13.62
2017-09-25T05:40:47.665Z,10.57
2017-09-25T05:43:17.230Z,12.70
2017-09-25T05:45:47.667Z,11.23
2017-09-25T05:48:18.053Z,9.90
2017-09-25T05:50:47.683Z,12.52
2017-09-25T05:53:17.347Z,10.68
2017-09-25T05:55:47.131Z,14.10
2017-09-25T05:58:19.835Z,10.85
2017-09-25T06:00:49.663Z,11.02
2017-09-25T06:03:19.735Z,10.48
2017-09-25T06:05:55.958Z,12.18
2017-09-25T06:08:25.932Z,11.73
2017-09-25T06:10:56.246Z,13.60
2017-09-25T06:14:45.999Z,13.02
2017-09-25T06:17:15.950Z,15.60
2017-09-25T06:19:45.581Z,12.85
2017-09-25T06:22:15.375Z,9.40
2017-09-25T06:24:44.919Z,9.15
2017-09-25T06:27:14.441Z,9.85
2017-09-25T06:29:44.312Z,12.20
2017-09-25T06:32:14.016Z,11.20
2017-09-25T06:34:43.566Z,8.20
2017-09-25T06:37:13.126Z,9.23
2017-09-25T06:39:43.585Z,8.80
2017-09-25T06:42:13.206Z,8.83
2017-09-25T06:44:42.826Z,9.35
2017-09-25T06:47:12.646Z,9.52
2017-09-25T06:49:42.203Z,10.90
2017-09-25T06:52:11.728Z,10.73
2017-09-25T06:54:41.536Z,11.23
2017-09-25T06:57:11.063Z,9.23
2017-09-25T06:59:40.673Z,7.28
2017-09-25T07:02:10.339Z,10.73
2017-09-25T07:04:39.983Z,7.60
2017-09-25T07:07:10.016Z,7.63
2017-09-25T07:09:39.911Z,11.40
2017-09-25T07:12:09.463Z,9.65
2017-09-25T07:14:40.047Z,9.03
2017-09-25T07:17:09.635Z,9.50
2017-09-25T07:19:39.453Z,6.90
2017-09-25T07:22:09.006Z,6.55
2017-09-25T07:24:39.508Z,8.70
2017-09-25T07:27:09.182Z,10.05
2017-09-25T07:29:39.528Z,9.63
2017-09-25T07:32:09.168Z,6.30
2017-09-25T07:34:38.931Z,6.40
2017-09-25T07:37:08.679Z,9.63
2017-09-25T07:39:39.542Z,6.40
2017-09-25T07:42:10.016Z,6.35
2017-09-25T07:44:39.724Z,10.47
2017-09-25T07:47:09.390Z,9.32
2017-09-25T07:49:39.974Z,7.28
2017-09-25T08:06:21.869Z,6.68
2017-09-25T08:08:52.292Z,9.43
2017-09-25T08:14:31.810Z,6.90
2017-09-25T08:17:02.931Z,9.68
2017-09-25T08:19:32.598Z,8.38
2017-09-25T08:22:02.253Z,8.57
2017-09-25T08:24:32.063Z,7.35
2017-09-25T08:27:01.652Z,9.30
2017-09-25T08:29:31.304Z,9.43
2017-09-25T08:32:01.519Z,9.73
2017-09-25T08:34:31.435Z,6.80
2017-09-25T08:46:02.918Z,9.75
2017-09-25T08:48:32.987Z,11.40
2017-09-25T08:51:03.317Z,9.38
2017-09-25T08:53:33.920Z,10.73
2017-09-25T08:56:08.580Z,7.62
2017-09-25T08:58:38.290Z,12.37
2017-09-25T09:01:08.583Z,14.68
2017-09-25T09:03:38.147Z,8.77
2017-09-25T09:06:07.747Z,11.88
2017-09-25T09:08:46.143Z,10.40
2017-09-25T09:11:17.299Z,9.07
2017-09-25T09:13:49.459Z,6.68
2017-09-25T09:16:19.006Z,9.90
2017-09-25T09:18:48.587Z,11.00
2017-09-25T09:21:18.904Z,7.15
2017-09-25T09:23:48.627Z,7.70
2017-09-25T09:26:20.263Z,11.07
2017-09-25T09:28:49.896Z,8.82
2017-09-25T09:31:19.503Z,10.48
2017-09-25T09:33:49.091Z,10.98
2017-09-25T09:36:18.712Z,9.57
2017-09-25T09:38:48.277Z,10.52
2017-09-25T09:41:19.098Z,8.80
2017-09-25T09:43:48.670Z,9.23
2017-09-25T09:46:18.341Z,10.35
2017-09-25T09:48:49.078Z,6.73
2017-09-25T09:51:19.487Z,10.38
2017-09-25T09:53:49.017Z,7.55
2017-09-25T09:56:19.955Z,8.73
2017-09-25T09:58:50.040Z,7.00
2017-09-25T10:01:19.647Z,8.60
2017-09-25T10:03:49.562Z,8.60
2017-09-25T10:06:19.166Z,7.70
2017-09-25T10:08:48.731Z,8.00
2017-09-25T10:11:18.700Z,8.70
2017-09-25T10:13:48.244Z,9.30
2017-09-25T10:16:18.551Z,9.38
2017-09-25T10:18:49.201Z,8.60
2017-09-25T10:21:19.556Z,9.57
2017-09-25T10:23:49.168Z,10.13
2017-09-25T10:26:19.000Z,9.88
2017-09-25T10:28:48.556Z,10.23
2017-09-25T10:31:18.846Z,8.73
2017-09-25T10:33:48.764Z,11.07
2017-09-25T10:36:18.323Z,8.80
2017-09-25T10:38:47.855Z,10.98
2017-09-25T10:41:17.864Z,10.20
2017-09-25T10:43:47.721Z,10.38
2017-09-25T10:46:17.995Z,11.12
2017-09-25T10:48:48.051Z,12.57
2017-09-25T10:51:17.636Z,11.07
2017-09-25T10:53:47.231Z,11.90
2017-09-25T10:56:17.574Z,11.10
2017-09-25T10:58:49.788Z,11.40
2017-09-25T11:02:23.303Z,12.10
2017-09-25T11:04:53.030Z,13.15
2017-09-25T11:07:22.597Z,12.25
2017-09-25T11:09:52.968Z,11.20
2017-09-25T11:12:22.523Z,10.18
2017-09-25T11:14:52.092Z,12.15
2017-09-25T11:17:22.142Z,11.12
2017-09-25T11:19:51.662Z,10.53
2017-09-25T11:22:21.976Z,10.90
2017-09-25T11:24:52.296Z,12.15
2017-09-25T11:27:21.840Z,10.30
2017-09-25T11:29:51.459Z,10.07
2017-09-25T11:32:21.317Z,9.85
2017-09-25T11:34:50.879Z,10.43
2017-09-25T11:37:20.459Z,11.90
2017-09-25T11:39:50.702Z,10.50
2017-09-25T11:42:20.548Z,10.82
2017-09-25T11:44:50.322Z,9.57
2017-09-25T11:47:20.236Z,10.67
2017-09-25T11:49:50.557Z,10.30
2017-09-25T11:52:20.931Z,11.20
2017-09-25T11:54:51.198Z,10.73
2017-09-25T11:57:20.833Z,10.13
2017-09-25T11:59:50.503Z,10.18
2017-09-25T12:02:20.570Z,11.35
2017-09-25T12:04:50.107Z,12.47
2017-09-25T12:07:19.762Z,11.32
2017-09-25T12:09:50.419Z,12.10
2017-09-25T12:12:20.108Z,13.45
2017-09-25T12:14:50.530Z,11.68
2017-09-25T12:17:20.404Z,11.60
2017-09-25T12:19:50.075Z,11.32
2017-09-25T12:22:19.590Z,11.52
2017-09-25T12:24:50.911Z,11.82
2017-09-25T12:27:22.116Z,10.00
2017-09-25T12:29:51.994Z,10.25
2017-09-25T12:32:21.845Z,12.00
2017-09-25T12:34:51.403Z,10.65
2017-09-25T12:37:21.226Z,12.13
2017-09-25T12:39:51.985Z,12.37
2017-09-25T12:42:21.550Z,10.95
2017-09-25T12:44:51.145Z,12.52
2017-09-25T12:47:21.170Z,13.25
2017-09-25T12:49:50.787Z,11.95
2017-09-25T12:52:20.446Z,11.20
2017-09-25T12:54:50.595Z,12.00
2017-09-25T12:57:20.936Z,10.50
2017-09-25T12:59:50.517Z,10.60
2017-09-25T13:02:21.206Z,10.95
2017-09-25T13:04:50.812Z,11.00
2017-09-25T13:07:20.381Z,12.27
2017-09-25T13:09:51.115Z,11.00
2017-09-25T13:12:21.448Z,11.57
2017-09-25T13:14:51.802Z,12.57
2017-09-25T13:17:21.946Z,10.60
2017-09-25T13:19:51.532Z,12.20
2017-09-25T13:22:21.204Z,12.37
2017-09-25T13:24:52.126Z,12.37
2017-09-25T13:27:21.959Z,13.62
2017-09-25T13:29:51.540Z,12.90
2017-09-25T13:32:21.200Z,10.93
2017-09-25T13:34:50.820Z,10.30
2017-09-25T13:37:20.811Z,10.40
2017-09-25T13:39:51.138Z,10.88
2017-09-25T13:42:20.716Z,10.40
2017-09-25T13:44:51.595Z,10.15
2017-09-25T13:47:21.151Z,10.95
2017-09-25T13:49:50.739Z,10.30
2017-09-25T13:52:20.574Z,10.98
2017-09-25T13:54:51.171Z,11.60
2017-09-25T13:57:20.882Z,11.43
2017-09-25T14:02:25.181Z,13.35
2017-09-25T14:04:55.593Z,12.02
2017-09-25T14:07:25.276Z,10.32
2017-09-25T14:09:55.394Z,11.07
2017-09-25T14:12:25.150Z,12.50
2017-09-25T14:14:55.382Z,10.93
2017-09-25T14:17:25.327Z,10.90
2017-09-25T14:19:54.969Z,11.00
2017-09-25T14:22:25.329Z,13.10
2017-09-25T14:24:55.258Z,12.25
2017-09-25T14:27:24.870Z,10.35
2017-09-25T14:29:54.470Z,12.23
2017-09-25T14:32:24.322Z,11.40
2017-09-25T14:34:54.684Z,11.80
2017-09-25T14:37:24.581Z,10.90
2017-09-25T14:39:54.578Z,11.32
2017-09-25T14:42:24.204Z,10.25
2017-09-25T14:44:53.852Z,11.35
2017-09-25T14:47:24.083Z,11.00
2017-09-25T14:49:53.706Z,9.85
2017-09-25T14:52:27.604Z,11.00
2017-09-25T14:54:57.604Z,11.27
2017-09-25T14:57:27.338Z,11.90
2017-09-25T14:59:57.795Z,11.63
2017-09-25T15:15:25.681Z,12.85
2017-09-25T15:17:58.749Z,13.30
2017-09-25T15:20:28.828Z,14.10
2017-09-25T15:23:07.467Z,15.25
2017-09-25T15:25:51.675Z,15.00
2017-09-25T15:28:22.796Z,13.02
2017-09-25T15:30:54.640Z,12.82
2017-09-25T15:33:26.507Z,16.00
2017-09-25T15:36:19.314Z,13.98
2017-09-25T15:38:50.936Z,13.70
2017-09-25T15:41:21.268Z,12.88
2017-09-25T15:43:56.682Z,13.50
2017-09-25T15:46:33.122Z,14.20
2017-09-25T15:49:03.527Z,14.97
2017-09-25T15:51:33.738Z,14.40
2017-09-25T15:54:11.597Z,14.57
2017-09-25T15:56:45.267Z,14.75
2017-09-25T15:59:17.036Z,14.10
2017-09-25T16:01:59.130Z,14.00
2017-09-25T16:04:30.457Z,15.45
2017-09-25T16:07:00.638Z,14.30
2017-09-25T16:09:33.555Z,15.60
2017-09-25T16:12:22.750Z,14.38
2017-09-25T16:15:01.793Z,19.62
2017-09-25T16:17:32.240Z,14.57
2017-09-25T16:20:03.552Z,16.65
2017-09-25T16:22:33.585Z,18.35
2017-09-25T16:25:03.972Z,15.18
2017-09-25T16:27:41.300Z,15.48
2017-09-25T16:30:14.828Z,16.42
2017-09-25T16:32:47.911Z,15.90
2017-09-25T16:35:18.099Z,14.23
2017-09-25T16:37:59.478Z,15.60
2017-09-25T16:40:29.066Z,14.30
2017-09-25T16:42:58.789Z,15.18
2017-09-25T16:45:28.593Z,15.65
2017-09-25T16:47:58.403Z,15.63
2017-09-25T16:50:28.543Z,15.60
2017-09-25T16:52:59.180Z,16.12
2017-09-25T16:55:29.926Z,14.70
2017-09-25T16:57:59.855Z,15.82
2017-09-25T17:00:29.830Z,16.37
2017-09-25T17:02:59.894Z,15.57
2017-09-25T17:05:29.579Z,18.55
2017-09-25T17:07:59.163Z,18.40
2017-09-25T17:10:29.282Z,17.30
2017-09-25T17:13:00.271Z,17.10
2017-09-25T17:15:29.933Z,18.00
2017-09-25T17:18:00.207Z,16.93
2017-09-25T17:20:34.913Z,19.45
2017-09-25T17:23:06.819Z,17.73
2017-09-25T17:25:36.781Z,16.97
2017-09-25T17:28:07.523Z,16.83
2017-09-25T17:30:37.338Z,16.45
2017-09-25T17:33:08.789Z,19.65
2017-09-25T17:35:38.716Z,16.75
2017-09-25T17:38:09.892Z,16.80
2017-09-25T17:40:41.840Z,16.98
2017-09-25T17:43:11.589Z,19.30
2017-09-25T17:45:41.391Z,17.62
2017-09-25T17:48:13.478Z,17.05
2017-09-25T17:50:48.411Z,14.98
2017-09-25T17:53:18.788Z,15.15
2017-09-25T17:55:48.554Z,16.73
2017-09-25T17:58:18.169Z,16.95
2017-09-25T18:00:47.968Z,15.60
2017-09-25T18:03:18.076Z,16.98
2017-09-25T18:05:49.255Z,15.50
2017-09-25T18:08:18.862Z,17.50
2017-09-25T18:10:48.603Z,17.20
2017-09-25T18:13:18.575Z,16.15
2017-09-25T18:15:48.595Z,17.02
2017-09-25T18:18:24.245Z,17.27
2017-09-25T18:20:54.507Z,18.48
2017-09-25T18:23:25.146Z,19.17
2017-09-25T18:25:56.021Z,17.25
2017-09-25T18:28:28.216Z,17.67
2017-09-25T18:30:58.772Z,20.23
2017-09-25T18:33:32.839Z,19.10
2017-09-25T18:38:52.645Z,18.73
2017-09-25T18:41:24.815Z,17.48
2017-09-25T18:44:03.170Z,15.80
2017-09-25T18:49:32.662Z,24.83
2017-09-25T18:52:04.254Z,20.30
2017-09-25T18:54:43.567Z,16.83
2017-09-25T19:00:18.913Z,17.83
2017-09-25T19:02:55.951Z,19.30
2017-09-25T19:05:33.219Z,19.80
2017-09-25T19:08:20.016Z,20.40
2017-09-25T19:10:51.609Z,20.08
2017-09-25T19:13:22.469Z,18.52
2017-09-25T19:15:58.478Z,19.27
2017-09-25T19:18:29.108Z,17.60
2017-09-25T19:21:16.234Z,13.55
2017-09-25T19:23:46.686Z,15.57
2017-09-25T19:26:19.700Z,14.37
2017-09-25T19:31:50.590Z,17.08
2017-09-25T19:34:21.438Z,15.48
2017-09-25T19:36:51.900Z,14.95
2017-09-25T19:39:54.245Z,20.60
2017-09-25T19:42:25.095Z,20.15
2017-09-25T19:44:55.873Z,16.17
2017-09-25T19:47:27.175Z,15.70
2017-09-25T19:49:57.622Z,15.07
2017-09-25T19:52:31.179Z,17.50
2017-09-25T19:55:02.097Z,16.20
2017-09-25T19:57:32.618Z,16.30
2017-09-25T20:00:03.020Z,16.52
2017-09-25T20:05:27.441Z,14.80
2017-09-25T20:07:58.295Z,21.83
2017-09-25T20:10:28.737Z,19.10
2017-09-25T20:12:59.176Z,17.27
2017-09-25T20:15:29.891Z,17.77
2017-09-25T20:18:00.657Z,16.15
2017-09-25T20:20:31.798Z,15.77
2017-09-25T20:23:03.260Z,15.77
2017-09-25T20:25:32.928Z,14.82
2017-09-25T20:28:04.111Z,14.02
2017-09-25T20:30:33.759Z,13.43
2017-09-25T20:33:03.399Z,13.45
2017-09-25T20:35:34.306Z,15.70
2017-09-25T20:38:04.467Z,13.32
2017-09-25T20:40:35.480Z,12.98
2017-09-25T20:43:08.024Z,14.75
2017-09-25T20:45:38.081Z,13.43
2017-09-25T20:48:08.228Z,13.38
2017-09-25T20:50:38.592Z,13.52
2017-09-25T20:53:08.211Z,15.30
2017-09-25T20:55:38.408Z,12.73
2017-09-25T20:58:08.846Z,12.45
2017-09-25T21:00:38.795Z,13.93
2017-09-25T21:03:08.349Z,12.68
2017-09-25T21:05:39.567Z,15.50
2017-09-25T21:08:09.642Z,10.93
2017-09-25T21:10:39.435Z,11.18
2017-09-25T21:13:09.343Z,10.20
2017-09-25T21:15:40.211Z,11.77
2017-09-25T21:18:10.398Z,10.80
2017-09-25T21:20:40.015Z,11.32
2017-09-25T21:23:09.728Z,11.80
2017-09-25T21:25:39.714Z,10.77
2017-09-25T21:28:12.103Z,10.60
2017-09-25T21:30:42.411Z,10.30
2017-09-25T21:33:13.421Z,11.15
2017-09-25T21:35:44.717Z,11.38
2017-09-25T21:38:14.490Z,11.93
2017-09-25T21:40:44.557Z,14.00
2017-09-25T21:43:14.251Z,14.20
2017-09-25T21:45:45.248Z,18.33
2017-09-25T21:48:18.069Z,15.52
2017-09-25T21:50:48.751Z,11.60
2017-09-25T21:53:19.001Z,12.75
2017-09-25T21:55:53.427Z,10.10
2017-09-25T21:58:23.204Z,11.10
2017-09-25T22:00:53.353Z,10.52
2017-09-25T22:03:25.562Z,13.38
2017-09-25T22:05:59.658Z,12.15
2017-09-25T22:08:29.638Z,12.43
2017-09-25T22:10:59.638Z,11.55
2017-09-25T22:13:29.226Z,10.77
2017-09-25T22:15:58.855Z,13.73
2017-09-25T22:18:30.088Z,11.20
2017-09-25T22:21:01.016Z,14.13
2017-09-25T22:23:32.243Z,9.73
2017-09-25T22:26:02.759Z,11.40
2017-09-25T22:28:33.511Z,10.60
2017-09-25T22:31:05.013Z,10.85
2017-09-25T22:33:36.128Z,11.55
2017-09-25T22:36:06.177Z,10.75
2017-09-25T22:38:35.832Z,10.13
2017-09-25T22:41:07.482Z,10.65
2017-09-25T22:43:37.558Z,14.27
2017-09-25T22:46:07.308Z,10.63
2017-09-25T22:48:37.916Z,10.68
2017-09-25T22:51:08.182Z,9.97
2017-09-25T22:53:38.154Z,13.35
2017-09-25T22:56:12.659Z,10.98
2017-09-25T22:58:43.828Z,10.10
2017-09-25T23:01:14.489Z,10.25
2017-09-25T23:03:45.045Z,15.25
2017-09-25T23:06:14.742Z,13.20
2017-09-25T23:08:45.260Z,16.70
2017-09-25T23:11:15.513Z,14.30
2017-09-25T23:13:45.119Z,17.03
2017-09-25T23:16:15.526Z,13.73
2017-09-25T23:18:45.600Z,14.87
2017-09-25T23:21:17.214Z,13.98
2017-09-25T23:23:47.610Z,12.70
2017-09-25T23:26:17.900Z,17.65
2017-09-25T23:28:48.790Z,13.70
2017-09-25T23:31:20.142Z,14.57
2017-09-25T23:33:50.195Z,16.55
2017-09-25T23:36:20.040Z,11.90
2017-09-25T23:38:49.783Z,12.27
2017-09-25T23:41:19.815Z,10.65
2017-09-25T23:43:49.614Z,11.33
2017-09-25T23:46:20.118Z,10.57
2017-09-25T23:48:50.087Z,10.30
2017-09-25T23:51:19.996Z,11.68
2017-09-25T23:53:49.702Z,9.75
2017-09-25T23:56:19.654Z,10.27
2017-09-25T23:58:49.636Z,12.75
